createdAt,value
2022-10-04T00:01:25.829Z,1.60
2022-10-04T00:04:07.770Z,1.93
2022-10-04T00:06:34.918Z,2.00
2022-10-04T00:09:10.956Z,1.93
2022-10-04T00:11:42.881Z,1.53
2022-10-04T00:14:16.667Z,2.17
2022-10-04T00:16:43.453Z,1.87
2022-10-04T00:19:15.572Z,1.87
2022-10-04T00:22:11.817Z,1.60
2022-10-04T00:25:06.993Z,2.00
2022-10-04T00:27:34.707Z,1.83
2022-10-04T00:30:00.906Z,1.90
2022-10-04T00:32:31.180Z,1.77
2022-10-04T00:34:59.082Z,1.80
2022-10-04T00:37:26.897Z,1.93
2022-10-04T00:40:01.272Z,1.93
2022-10-04T00:42:36.848Z,1.47
2022-10-04T00:45:21.174Z,1.43
2022-10-04T00:47:47.453Z,1.57
2022-10-04T00:50:19.628Z,1.47
2022-10-04T00:52:52.756Z,1.70
2022-10-04T00:55:26.832Z,1.90
2022-10-04T00:57:58.996Z,1.63
2022-10-04T01:00:26.427Z,1.73
2022-10-04T01:03:01.156Z,1.97
2022-10-04T01:05:32.872Z,1.90
2022-10-04T01:08:12.840Z,2.17
2022-10-04T01:10:57.278Z,1.80
2022-10-04T01:13:37.713Z,2.47
2022-10-04T01:16:10.818Z,1.90
2022-10-04T01:18:37.344Z,1.53
2022-10-04T01:21:21.436Z,2.17
2022-10-04T01:24:12.369Z,2.00
2022-10-04T01:26:41.905Z,1.73
2022-10-04T01:29:15.844Z,1.83
2022-10-04T01:31:50.555Z,1.60
2022-10-04T01:34:19.888Z,1.83
2022-10-04T01:36:47.941Z,1.80
2022-10-04T01:39:16.378Z,2.10
2022-10-04T01:41:57.820Z,1.30
2022-10-04T01:45:03.154Z,1.83
2022-10-04T01:47:46.693Z,2.00
2022-10-04T01:50:32.178Z,2.43
2022-10-04T01:53:42.933Z,1.67
2022-10-04T01:56:16.840Z,1.63
2022-10-04T01:58:59.231Z,1.40
2022-10-04T02:01:44.429Z,1.43
2022-10-04T02:04:21.319Z,1.83
2022-10-04T02:06:53.426Z,1.53
2022-10-04T02:09:25.823Z,1.53
2022-10-04T02:11:53.386Z,2.10
2022-10-04T02:14:24.462Z,1.60
2022-10-04T02:16:53.190Z,1.47
2022-10-04T02:19:24.501Z,1.60
2022-10-04T02:21:51.555Z,1.77
2022-10-04T02:24:18.866Z,1.60
2022-10-04T02:26:51.698Z,1.33
2022-10-04T02:29:21.098Z,1.57
2022-10-04T02:32:08.326Z,1.13
2022-10-04T02:34:35.322Z,1.40
2022-10-04T02:37:04.342Z,1.47
2022-10-04T02:39:44.476Z,1.63
2022-10-04T02:42:24.823Z,1.30
2022-10-04T02:45:09.366Z,1.60
2022-10-04T02:47:46.766Z,1.90
2022-10-04T02:50:27.865Z,1.63
2022-10-04T02:53:00.747Z,1.87
2022-10-04T02:55:30.084Z,1.40
2022-10-04T02:57:58.632Z,1.20
2022-10-04T03:00:30.700Z,1.30
2022-10-04T03:03:19.410Z,1.20
2022-10-04T03:05:54.497Z,1.90
2022-10-04T03:08:21.172Z,1.50
2022-10-04T03:10:48.470Z,1.80
2022-10-04T03:13:17.402Z,1.77
2022-10-04T03:15:44.031Z,1.50
2022-10-04T03:18:10.632Z,1.53
2022-10-04T03:20:38.684Z,1.77
2022-10-04T03:23:06.166Z,1.80
2022-10-04T03:25:52.232Z,1.50
2022-10-04T03:28:19.236Z,1.60
2022-10-04T03:30:47.501Z,2.33
2022-10-04T03:33:20.282Z,1.80
2022-10-04T03:35:50.882Z,1.60
2022-10-04T03:38:17.491Z,1.70
2022-10-04T03:40:59.342Z,2.03
2022-10-04T03:43:31.289Z,2.00
2022-10-04T03:45:59.781Z,1.57
2022-10-04T03:48:35.638Z,1.60
2022-10-04T03:51:05.616Z,1.87
2022-10-04T03:53:35.713Z,1.97
2022-10-04T03:56:08.204Z,2.23
2022-10-04T03:58:35.535Z,1.90
2022-10-04T04:01:13.999Z,1.90
2022-10-04T04:03:54.509Z,2.17
2022-10-04T04:06:23.344Z,2.27
2022-10-04T04:08:53.798Z,1.50
2022-10-04T04:11:25.839Z,1.70
2022-10-04T04:14:05.449Z,1.80
2022-10-04T04:16:32.002Z,1.40
2022-10-04T04:19:04.757Z,1.60
2022-10-04T04:21:52.858Z,1.60
2022-10-04T04:24:25.593Z,2.00
2022-10-04T04:26:57.342Z,2.00
2022-10-04T04:29:31.869Z,1.80
2022-10-04T04:32:32.250Z,1.97
2022-10-04T04:35:06.304Z,1.70
2022-10-04T04:37:34.649Z,1.77
2022-10-04T04:40:21.100Z,2.47
2022-10-04T04:42:49.180Z,2.10
2022-10-04T04:45:22.031Z,1.83
2022-10-04T04:47:51.365Z,2.17
2022-10-04T04:50:23.748Z,2.00
2022-10-04T04:52:52.576Z,2.60
2022-10-04T04:55:44.660Z,2.30
2022-10-04T04:58:24.078Z,2.17
2022-10-04T05:01:15.371Z,2.00
2022-10-04T05:03:41.768Z,2.43
2022-10-04T05:06:41.551Z,2.20
2022-10-04T05:09:24.477Z,2.17
2022-10-04T05:11:54.208Z,2.70
2022-10-04T05:14:20.744Z,2.33
2022-10-04T05:16:52.357Z,2.47
2022-10-04T05:19:39.482Z,1.80
2022-10-04T05:22:14.254Z,3.00
2022-10-04T05:24:43.953Z,2.30
2022-10-04T05:27:31.799Z,2.53
2022-10-04T05:30:07.787Z,2.47
2022-10-04T05:32:53.139Z,2.40
2022-10-04T05:35:21.913Z,1.77
2022-10-04T05:38:00.555Z,2.33
2022-10-04T05:40:36.335Z,2.43
2022-10-04T05:43:21.950Z,2.43
2022-10-04T05:46:17.992Z,2.07
2022-10-04T05:48:48.244Z,2.60
2022-10-04T05:51:26.906Z,2.03
2022-10-04T05:53:55.481Z,2.20
2022-10-04T05:56:41.427Z,2.50
2022-10-04T05:59:41.260Z,2.17
2022-10-04T06:02:25.719Z,2.20
2022-10-04T06:05:11.569Z,2.83
2022-10-04T06:07:46.543Z,2.37
2022-10-04T06:10:40.699Z,2.40
2022-10-04T06:13:35.422Z,2.23
2022-10-04T06:16:34.278Z,2.63
2022-10-04T06:19:12.657Z,2.50
2022-10-04T06:22:02.405Z,2.97
2022-10-04T06:24:36.533Z,2.47
2022-10-04T06:27:10.336Z,2.27
2022-10-04T06:29:42.096Z,2.70
2022-10-04T06:32:29.063Z,2.30
2022-10-04T06:35:01.396Z,2.20
2022-10-04T06:38:05.866Z,2.53
2022-10-04T06:40:44.802Z,2.37
2022-10-04T06:43:35.452Z,2.87
2022-10-04T06:46:07.145Z,2.10
2022-10-04T06:48:48.278Z,2.40
2022-10-04T06:51:56.488Z,2.90
2022-10-04T06:54:31.742Z,2.10
2022-10-04T06:57:18.253Z,2.47
2022-10-04T07:00:00.089Z,2.50
2022-10-04T07:02:53.915Z,2.50
2022-10-04T07:05:53.583Z,2.17
2022-10-04T07:08:38.922Z,2.53
2022-10-04T07:11:24.602Z,2.33
2022-10-04T07:14:14.318Z,2.47
2022-10-04T07:16:54.171Z,2.20
2022-10-04T07:19:41.909Z,2.47
2022-10-04T07:22:10.176Z,2.60
2022-10-04T07:25:05.180Z,2.30
2022-10-04T07:27:40.682Z,2.20
2022-10-04T07:30:14.259Z,3.17
2022-10-04T07:32:45.699Z,2.57
2022-10-04T07:35:16.173Z,2.57
2022-10-04T07:37:57.897Z,2.50
2022-10-04T07:40:30.839Z,2.27
2022-10-04T07:43:03.590Z,2.90
2022-10-04T07:45:34.322Z,2.30
2022-10-04T07:48:12.934Z,2.40
2022-10-04T07:51:01.021Z,2.03
2022-10-04T07:53:37.019Z,1.70
2022-10-04T07:56:13.328Z,1.80
2022-10-04T07:58:49.389Z,1.70
2022-10-04T08:01:43.410Z,2.40
2022-10-04T08:04:31.109Z,2.00
2022-10-04T08:07:00.687Z,1.93
2022-10-04T08:09:26.795Z,1.93
2022-10-04T08:12:05.290Z,2.33
2022-10-04T08:15:02.235Z,1.90
2022-10-04T08:17:52.239Z,1.90
2022-10-04T08:20:18.801Z,2.03
2022-10-04T08:23:19.094Z,2.07
2022-10-04T08:26:07.054Z,2.03
2022-10-04T08:29:37.940Z,2.10
2022-10-04T08:32:07.874Z,1.90
2022-10-04T08:34:56.531Z,1.77
2022-10-04T08:37:44.889Z,1.90
2022-10-04T08:40:23.401Z,1.60
2022-10-04T08:42:56.143Z,1.73
2022-10-04T08:45:22.171Z,1.50
2022-10-04T08:48:00.807Z,1.37
2022-10-04T08:50:52.089Z,2.00
2022-10-04T08:53:30.201Z,1.53
2022-10-04T08:56:12.869Z,2.13
2022-10-04T08:59:02.207Z,1.77
2022-10-04T09:01:57.484Z,1.50
2022-10-04T09:05:06.436Z,1.40
2022-10-04T09:07:41.994Z,1.80
2022-10-04T09:10:28.295Z,1.20
2022-10-04T09:13:00.184Z,1.30
2022-10-04T09:15:30.577Z,1.77
2022-10-04T09:18:12.231Z,1.80
2022-10-04T09:20:58.330Z,1.50
2022-10-04T09:23:31.381Z,1.53
2022-10-04T09:26:14.382Z,1.80
2022-10-04T09:29:18.312Z,1.53
2022-10-04T09:31:53.777Z,1.40
2022-10-04T09:34:41.603Z,1.87
2022-10-04T09:37:26.305Z,1.87
2022-10-04T09:40:19.465Z,1.60
2022-10-04T09:43:07.106Z,1.63
2022-10-04T09:45:57.781Z,1.30
2022-10-04T09:48:36.799Z,1.47
2022-10-04T09:51:24.672Z,1.40
2022-10-04T09:54:07.015Z,1.30
2022-10-04T09:56:47.907Z,1.30
2022-10-04T09:59:36.994Z,1.40
2022-10-04T10:02:18.403Z,1.67
2022-10-04T10:05:03.113Z,1.40
2022-10-04T10:07:49.995Z,1.40
2022-10-04T10:11:01.589Z,1.87
2022-10-04T10:13:57.424Z,1.70
2022-10-04T10:16:53.930Z,1.47
2022-10-04T10:19:44.791Z,1.20
2022-10-04T10:22:43.251Z,0.90
2022-10-04T10:25:15.485Z,1.00
2022-10-04T10:28:31.152Z,1.10
2022-10-04T10:31:13.438Z,1.30
2022-10-04T10:33:59.500Z,1.33
2022-10-04T10:36:41.437Z,1.10
2022-10-04T10:39:26.061Z,1.00
2022-10-04T10:42:11.446Z,1.80
2022-10-04T10:45:08.698Z,0.90
2022-10-04T10:47:48.104Z,1.00
2022-10-04T10:50:33.078Z,1.00
2022-10-04T10:53:19.421Z,1.17
2022-10-04T10:55:48.467Z,1.30
2022-10-04T10:58:33.376Z,1.40
2022-10-04T11:01:24.586Z,1.20
2022-10-04T11:04:27.781Z,1.30
2022-10-04T11:07:13.268Z,1.13
2022-10-04T11:10:14.804Z,1.40
2022-10-04T11:13:04.191Z,1.20
2022-10-04T11:15:40.001Z,1.17
2022-10-04T11:18:44.492Z,1.30
2022-10-04T11:21:32.375Z,1.10
2022-10-04T11:24:07.720Z,1.13
2022-10-04T11:26:40.637Z,1.27
2022-10-04T11:29:39.279Z,1.10
2022-10-04T11:32:18.633Z,1.30
2022-10-04T11:34:58.958Z,1.00
2022-10-04T11:37:43.549Z,1.20
2022-10-04T11:40:47.080Z,1.63
2022-10-04T11:43:35.452Z,0.77
2022-10-04T11:46:29.119Z,1.20
2022-10-04T11:49:35.984Z,0.90
2022-10-04T11:52:20.317Z,1.17
2022-10-04T11:55:07.522Z,1.27
2022-10-04T11:57:54.668Z,1.10
2022-10-04T12:00:24.022Z,1.50
2022-10-04T12:03:28.307Z,1.20
2022-10-04T12:06:40.289Z,0.90
2022-10-04T12:09:38.816Z,1.00
2022-10-04T12:12:23.764Z,1.00
2022-10-04T12:15:21.617Z,1.00
2022-10-04T12:18:10.963Z,1.27
2022-10-04T12:25:09.247Z,1.00
2022-10-04T12:32:57.780Z,1.00
2022-10-04T12:35:42.812Z,1.03
2022-10-04T12:38:34.352Z,1.43
2022-10-04T12:41:20.234Z,1.00
2022-10-04T12:43:56.874Z,1.10
2022-10-04T12:46:29.352Z,1.20
2022-10-04T12:49:03.360Z,1.20
2022-10-04T12:51:58.383Z,1.40
2022-10-04T12:54:46.835Z,1.37
2022-10-04T12:57:28.400Z,1.10
2022-10-04T13:00:15.318Z,1.40
2022-10-04T13:03:07.360Z,1.30
2022-10-04T13:05:45.887Z,1.30
2022-10-04T13:08:39.915Z,1.03
2022-10-04T13:11:43.555Z,1.23
2022-10-04T13:14:25.222Z,1.30
2022-10-04T13:17:28.596Z,1.10
2022-10-04T13:20:25.817Z,1.30
2022-10-04T13:23:03.007Z,1.17
2022-10-04T13:26:28.295Z,1.10
2022-10-04T13:29:02.201Z,1.40
2022-10-04T13:31:49.182Z,1.20
2022-10-04T13:34:37.931Z,1.33
2022-10-04T13:37:44.913Z,1.30
2022-10-04T13:40:28.734Z,0.90
2022-10-04T13:43:36.438Z,1.00
2022-10-04T13:46:10.969Z,1.07
2022-10-04T13:48:50.998Z,1.00
2022-10-04T13:51:43.718Z,0.90
2022-10-04T13:55:05.636Z,0.97
2022-10-04T13:57:45.341Z,0.73
2022-10-04T14:00:18.836Z,0.67
2022-10-04T14:02:59.467Z,0.67
2022-10-04T14:05:44.700Z,0.90
2022-10-04T14:08:55.607Z,0.80
2022-10-04T14:11:41.012Z,0.83
2022-10-04T14:14:32.486Z,0.77
2022-10-04T14:17:22.157Z,0.80
2022-10-04T14:20:29.140Z,1.10
2022-10-04T14:23:37.404Z,1.20
2022-10-04T14:26:36.479Z,2.37
2022-10-04T14:29:18.014Z,3.07
2022-10-04T14:32:13.081Z,2.27
2022-10-04T14:34:56.280Z,2.17
2022-10-04T14:37:44.950Z,1.80
2022-10-04T14:40:20.298Z,1.50
2022-10-04T14:43:22.656Z,1.73
2022-10-04T14:46:17.542Z,1.80
2022-10-04T14:49:00.491Z,1.70
2022-10-04T14:51:46.255Z,1.50
2022-10-04T14:54:22.264Z,1.60
2022-10-04T14:57:00.836Z,1.60
2022-10-04T14:59:56.347Z,1.33
2022-10-04T15:02:23.126Z,1.40
2022-10-04T15:05:27.996Z,2.13
2022-10-04T15:08:20.971Z,1.80
2022-10-04T15:10:51.370Z,1.70
2022-10-04T15:13:32.801Z,1.60
2022-10-04T15:16:15.182Z,1.47
2022-10-04T15:19:03.636Z,1.70
2022-10-04T15:21:42.038Z,2.67
2022-10-04T15:24:17.788Z,2.17
2022-10-04T15:27:14.878Z,2.20
2022-10-04T15:29:59.954Z,8.50
2022-10-04T15:32:49.038Z,19.97
2022-10-04T15:35:40.065Z,13.07
2022-10-04T15:38:25.114Z,9.57
2022-10-04T15:41:19.374Z,5.17
2022-10-04T15:44:12.054Z,3.40
2022-10-04T15:46:57.727Z,2.43
2022-10-04T15:49:26.894Z,6.13
2022-10-04T15:52:12.248Z,6.40
2022-10-04T15:55:03.026Z,4.53
2022-10-04T15:57:44.492Z,3.40
2022-10-04T16:00:27.986Z,3.70
2022-10-04T16:03:22.495Z,3.20
2022-10-04T16:06:08.967Z,3.20
2022-10-04T16:09:13.241Z,2.50
2022-10-04T16:11:57.912Z,2.30
2022-10-04T16:14:47.587Z,1.70
2022-10-04T16:17:52.830Z,1.20
2022-10-04T16:20:38.065Z,1.23
2022-10-04T16:23:24.793Z,1.10
2022-10-04T16:25:52.855Z,1.10
2022-10-04T16:29:20.647Z,1.40
2022-10-04T16:31:54.447Z,1.50
2022-10-04T16:34:41.140Z,1.37
2022-10-04T16:37:57.872Z,2.30
2022-10-04T16:40:27.678Z,2.40
2022-10-04T16:43:03.272Z,4.23
2022-10-04T16:46:03.295Z,10.00
2022-10-04T16:48:51.096Z,12.37
2022-10-04T16:51:17.880Z,33.53
2022-10-04T16:53:53.357Z,36.50
2022-10-04T16:56:25.201Z,35.43
2022-10-04T16:58:56.468Z,35.70
2022-10-04T17:01:22.879Z,50.87
2022-10-04T17:04:20.257Z,32.77
2022-10-04T17:07:02.690Z,20.17
2022-10-04T17:09:35.220Z,13.63
2022-10-04T17:12:16.532Z,12.17
2022-10-04T17:14:52.228Z,11.00
2022-10-04T17:17:29.370Z,9.00
2022-10-04T17:20:19.931Z,8.90
2022-10-04T17:23:12.694Z,6.20
2022-10-04T17:25:51.148Z,6.30
2022-10-04T17:28:26.725Z,5.97
2022-10-04T17:31:05.851Z,5.93
2022-10-04T17:33:51.025Z,6.37
2022-10-04T17:36:20.480Z,5.60
2022-10-04T17:38:50.822Z,6.37
2022-10-04T17:41:32.528Z,7.43
2022-10-04T17:44:23.122Z,8.50
2022-10-04T17:47:03.302Z,13.27
2022-10-04T17:50:01.145Z,14.10
2022-10-04T17:52:59.093Z,12.27
2022-10-04T17:55:33.289Z,11.63
2022-10-04T17:58:09.929Z,11.97
2022-10-04T18:01:13.622Z,17.30
2022-10-04T18:03:46.306Z,24.27
2022-10-04T18:06:33.886Z,23.27
2022-10-04T18:09:26.679Z,14.30
2022-10-04T18:12:04.315Z,11.07
2022-10-04T18:14:37.339Z,11.00
2022-10-04T18:17:07.701Z,10.07
2022-10-04T18:19:49.858Z,33.20
2022-10-04T18:22:20.677Z,36.97
2022-10-04T18:25:01.687Z,30.47
2022-10-04T18:27:28.906Z,20.40
2022-10-04T18:30:13.585Z,14.83
2022-10-04T18:32:51.008Z,15.90
2022-10-04T18:35:28.077Z,17.53
2022-10-04T18:38:11.317Z,15.40
2022-10-04T18:40:42.185Z,16.73
2022-10-04T18:43:29.087Z,15.57
2022-10-04T18:46:01.742Z,15.13
2022-10-04T18:48:47.455Z,15.20
2022-10-04T18:51:24.741Z,16.40
2022-10-04T18:54:24.375Z,15.67
2022-10-04T18:57:02.779Z,17.03
2022-10-04T19:00:12.732Z,19.40
2022-10-04T19:02:54.219Z,18.00
2022-10-04T19:05:50.835Z,19.63
2022-10-04T19:08:29.156Z,24.73
2022-10-04T19:11:04.462Z,23.47
2022-10-04T19:13:55.336Z,25.47
2022-10-04T19:16:53.520Z,24.33
2022-10-04T19:19:32.230Z,22.50
2022-10-04T19:22:12.380Z,21.77
2022-10-04T19:25:05.502Z,22.23
2022-10-04T19:27:44.628Z,26.60
2022-10-04T19:30:13.918Z,30.07
2022-10-04T19:33:17.667Z,25.40
2022-10-04T19:36:03.461Z,25.30
2022-10-04T19:38:50.993Z,22.20
2022-10-04T19:41:55.248Z,21.93
2022-10-04T19:44:31.706Z,17.40
2022-10-04T19:47:05.269Z,12.00
2022-10-04T19:49:40.074Z,11.53
2022-10-04T19:52:32.928Z,11.97
2022-10-04T19:55:15.052Z,11.13
2022-10-04T19:57:42.317Z,11.57
2022-10-04T20:00:12.180Z,10.93
2022-10-04T20:02:48.222Z,14.37
2022-10-04T20:05:24.379Z,10.93
2022-10-04T20:07:56.653Z,9.63
2022-10-04T20:10:40.037Z,10.93
2022-10-04T20:13:22.655Z,11.93
2022-10-04T20:15:52.972Z,13.93
2022-10-04T20:18:31.942Z,11.73
2022-10-04T20:21:00.440Z,12.57
2022-10-04T20:23:48.198Z,35.47
2022-10-04T20:26:54.514Z,50.93
2022-10-04T20:29:55.470Z,26.20
2022-10-04T20:32:36.126Z,17.20
2022-10-04T20:35:08.163Z,19.30
2022-10-04T20:37:43.843Z,16.10
2022-10-04T20:40:25.862Z,16.27
2022-10-04T20:43:14.042Z,14.00
2022-10-04T20:45:56.612Z,14.63
2022-10-04T20:48:25.676Z,13.67
2022-10-04T20:50:53.211Z,14.90
2022-10-04T20:53:20.780Z,13.73
2022-10-04T20:55:48.818Z,13.20
2022-10-04T20:58:34.515Z,13.23
2022-10-04T21:01:40.570Z,12.83
2022-10-04T21:04:29.750Z,14.33
2022-10-04T21:06:58.487Z,14.17
2022-10-04T21:09:29.169Z,13.73
2022-10-04T21:11:56.940Z,14.23
2022-10-04T21:14:28.012Z,13.70
2022-10-04T21:17:02.436Z,11.47
2022-10-04T21:19:32.404Z,11.40
2022-10-04T21:22:03.878Z,11.03
2022-10-04T21:24:35.700Z,10.03
2022-10-04T21:27:03.120Z,10.67
2022-10-04T21:29:29.307Z,9.07
2022-10-04T21:31:56.750Z,9.50
2022-10-04T21:34:48.227Z,10.07
2022-10-04T21:37:09.733Z,9.43
2022-10-04T21:39:35.905Z,9.10
2022-10-04T21:42:02.088Z,8.50
2022-10-04T21:44:28.425Z,9.63
2022-10-04T21:46:54.502Z,10.37
2022-10-04T21:49:20.626Z,10.40
2022-10-04T21:51:46.936Z,10.00
2022-10-04T21:54:13.067Z,10.40
2022-10-04T21:56:39.255Z,10.27
2022-10-04T21:59:05.580Z,10.20
2022-10-04T22:01:32.020Z,10.27
2022-10-04T22:03:58.155Z,9.90
2022-10-04T22:06:24.885Z,9.10
2022-10-04T22:08:51.055Z,9.67
2022-10-04T22:11:17.530Z,10.13
2022-10-04T22:13:44.354Z,9.93
2022-10-04T22:16:10.649Z,9.53
2022-10-04T22:18:36.740Z,8.43
2022-10-04T22:21:03.354Z,9.90
2022-10-04T22:23:39.566Z,9.27
2022-10-04T22:26:13.704Z,9.20
2022-10-04T22:28:43.640Z,9.00
2022-10-04T22:31:12.016Z,8.80
2022-10-04T22:33:40.477Z,8.27
2022-10-04T22:36:12.736Z,8.63
2022-10-04T22:38:40.766Z,9.93
2022-10-04T22:41:15.732Z,9.83
2022-10-04T22:43:42.022Z,9.70
2022-10-04T22:46:17.251Z,9.20
2022-10-04T22:48:48.244Z,8.90
2022-10-04T22:51:14.454Z,9.63
2022-10-04T22:53:43.148Z,8.00
2022-10-04T22:56:12.116Z,7.60
2022-10-04T22:58:39.302Z,7.50
2022-10-04T23:01:14.170Z,8.90
2022-10-04T23:03:44.421Z,8.20
2022-10-04T23:06:13.506Z,10.17
2022-10-04T23:08:41.515Z,9.90
2022-10-04T23:11:09.880Z,10.03
2022-10-04T23:13:36.541Z,8.33
2022-10-04T23:16:21.390Z,8.50
2022-10-04T23:18:48.265Z,9.23
2022-10-04T23:21:20.535Z,8.47
2022-10-04T23:23:48.110Z,8.80
2022-10-04T23:26:21.201Z,7.93
2022-10-04T23:28:47.408Z,8.13
2022-10-04T23:31:21.922Z,8.17
2022-10-04T23:33:48.913Z,8.10
2022-10-04T23:36:15.189Z,7.73
2022-10-04T23:38:47.813Z,8.13
2022-10-04T23:41:14.525Z,7.47
2022-10-04T23:43:40.805Z,7.33
2022-10-04T23:46:17.463Z,7.60
2022-10-04T23:48:44.494Z,6.90
2022-10-04T23:51:13.498Z,7.13
2022-10-04T23:53:41.421Z,6.70
2022-10-04T23:56:23.066Z,7.03
2022-10-04T23:58:51.970Z,6.70
